This is the latest recevied weather packets stored in our database for station/object N1ICS-1. If no packets are shown the sender has not sent any weather packets the latest 10 day(s).
| Time | Temp. | Humidity | Pressure | Rain* | Wind** | Luminosity | Snow |
|---|---|---|---|---|---|---|---|
| 1777065002 | 19.44° C | 91% | 1007.8 hPa | 3.56 mm | - | 93 W/m² | - |
| 1777064702 | 20° C | 89% | 1007.9 hPa | 0 mm | - | 59 W/m² | - |
| 1777064403 | 20.56° C | 85% | 1008 hPa | 0 mm | - | 80 W/m² | - |
| 1777064102 | 20.56° C | 82% | 1008 hPa | 0 mm | - | 142 W/m² | - |
| 1777063801 | 21.11° C | 81% | 1007.8 hPa | 0 mm | - | 205 W/m² | - |
| 1777063502 | 21.11° C | 80% | 1007.7 hPa | 0 mm | - | 348 W/m² | - |
| 1777063202 | 21.11° C | 80% | 1007.8 hPa | 0 mm | - | 379 W/m² | - |
| 1777062902 | 21.67° C | 78% | 1007.8 hPa | 0 mm | - | 378 W/m² | - |
| 1777062602 | 22.22° C | 74% | 1007.3 hPa | 0 mm | - | 264 W/m² | - |
| 1777062302 | 22.78° C | 72% | 1007.8 hPa | 0 mm | - | 194 W/m² | - |
| 1777062001 | 23.33° C | 71% | 1008.1 hPa | 0 mm | - | 104 W/m² | - |
| 1777061701 | 23.89° C | 69% | 1007.8 hPa | 0 mm | - | 209 W/m² | - |
| 1777061402 | 24.44° C | 67% | 1007.6 hPa | 0 mm | - | 307 W/m² | - |
| 1777061102 | 25° C | 66% | 1007.6 hPa | 0 mm | - | 720 W/m² | - |
| 1777060803 | 25° C | 66% | 1007.7 hPa | 0 mm | - | 937 W/m² | - |
| 1777060502 | 23.89° C | 68% | 1007.8 hPa | 0 mm | - | 385 W/m² | - |
| 1777060202 | 24.44° C | 69% | 1007.8 hPa | 0 mm | - | 303 W/m² | - |
| 1777059902 | 24.44° C | 70% | 1007.8 hPa | 0 mm | - | 346 W/m² | - |
| 1777059601 | 24.44° C | 68% | 1008.1 hPa | 0 mm | - | 538 W/m² | - |
| 1777059302 | 24.44° C | 66% | 1008 hPa | 0 mm | - | 266 W/m² | - |
| 1777059002 | 25.56° C | 65% | 1008 hPa | 0 mm | - | 579 W/m² | - |
| 1777058702 | 25.56° C | 65% | 1008.1 hPa | 0 mm | - | 929 W/m² | - |
| 1777058402 | 26.11° C | 64% | 1008 hPa | 0 mm | - | 980 W/m² | - |
| 1777058102 | 25° C | 65% | 1008.1 hPa | 0 mm | - | 388 W/m² | - |
| 1777057802 | 25° C | 64% | 1008.3 hPa | 0 mm | - | 197 W/m² | - |
* Rain latest hour (hover to see other rain measurements)
** Current wind speed in m/s (hover to see current wind gust speed)